Time;durP1;ratioP1;P1;durP2;ratioP2;P2;SDS_P1;SDS_P2;PMS_P1;PMS_P2;Temp;Humidity;BMP_temperature;BMP_pressure;BME280_temperature;BME280_humidity;BME280_pressure;Samples;Min_cycle;Max_cycle;Signal;HPM_P1;HPM_P2
2023/01/26 00:00:51;;;;;;;5.65;3.10;;;10.20;62.40;;;;;;6246943;23;20381;-81
2023/01/26 00:03:18;;;;;;;4.65;3.10;;;10.20;62.30;;;;;;6245307;23;20338;-81
2023/01/26 00:05:44;;;;;;;6.85;3.35;;;10.20;62.40;;;;;;6245110;23;20395;-82
2023/01/26 00:08:10;;;;;;;4.90;3.15;;;10.20;62.20;;;;;;6246345;23;20110;-82
2023/01/26 00:10:36;;;;;;;6.80;3.20;;;10.20;62.60;;;;;;6246814;23;20000;-82
2023/01/26 00:13:02;;;;;;;5.40;3.42;;;10.20;62.80;;;;;;6246349;23;20430;-82
2023/01/26 00:15:30;;;;;;;5.32;3.20;;;10.20;62.80;;;;;;6246590;23;20410;-81
2023/01/26 00:17:56;;;;;;;4.90;3.20;;;10.20;62.90;;;;;;6246309;23;20473;-82
2023/01/26 00:20:21;;;;;;;5.80;3.33;;;10.20;63.20;;;;;;6246241;23;20000;-82
2023/01/26 00:22:47;;;;;;;5.88;3.40;;;10.20;63.00;;;;;;6246367;23;20012;-82
2023/01/26 00:25:13;;;;;;;4.88;3.20;;;10.20;63.20;;;;;;6246137;23;20004;-80
2023/01/26 00:27:38;;;;;;;6.22;3.60;;;10.20;63.30;;;;;;6246116;23;20008;-82
2023/01/26 00:30:04;;;;;;;5.40;3.30;;;10.20;63.50;;;;;;6246511;23;20001;-81
2023/01/26 00:32:30;;;;;;;6.45;3.67;;;10.20;63.40;;;;;;6246116;23;20031;-80
2023/01/26 00:34:56;;;;;;;5.18;3.30;;;10.10;63.20;;;;;;6246444;23;20426;-82
2023/01/26 00:37:21;;;;;;;5.88;3.33;;;10.10;63.20;;;;;;6246131;23;20031;-81
2023/01/26 00:39:47;;;;;;;4.40;2.60;;;10.10;63.30;;;;;;6246035;23;20003;-80
2023/01/26 00:42:14;;;;;;;5.93;3.25;;;10.10;63.40;;;;;;6245642;23;20448;-82
2023/01/26 00:44:42;;;;;;;4.78;3.10;;;10.20;63.50;;;;;;6246363;23;20019;-81
2023/01/26 00:47:10;;;;;;;5.72;3.25;;;10.20;63.60;;;;;;6246124;23;20000;-82
2023/01/26 00:49:35;;;;;;;7.88;3.42;;;10.20;63.40;;;;;;6246272;23;20000;-81
2023/01/26 00:52:02;;;;;;;5.28;3.40;;;10.10;63.30;;;;;;6245668;23;20072;-82
2023/01/26 00:54:27;;;;;;;5.20;3.05;;;10.10;63.30;;;;;;6246264;23;20000;-81
2023/01/26 00:56:54;;;;;;;4.70;3.10;;;10.10;63.20;;;;;;6246176;23;20000;-81
2023/01/26 00:59:20;;;;;;;5.45;3.13;;;10.10;63.30;;;;;;6246168;23;20028;-81
2023/01/26 01:01:46;;;;;;;5.97;3.50;;;10.10;63.20;;;;;;6245948;23;20007;-80
2023/01/26 01:04:12;;;;;;;5.47;3.30;;;10.10;63.20;;;;;;6245500;23;20047;-81
2023/01/26 01:06:38;;;;;;;6.90;3.30;;;10.10;63.10;;;;;;6245751;23;19996;-80
2023/01/26 01:09:04;;;;;;;5.47;3.53;;;10.10;63.20;;;;;;6245859;23;20075;-81
2023/01/26 01:11:31;;;;;;;6.35;3.58;;;10.00;63.30;;;;;;6245852;23;20039;-80
2023/01/26 01:13:58;;;;;;;5.53;3.30;;;10.00;63.50;;;;;;6246051;23;20000;-82
2023/01/26 01:16:24;;;;;;;5.07;3.20;;;10.10;63.70;;;;;;6218730;23;20038;-82
2023/01/26 01:18:53;;;;;;;4.93;3.40;;;10.10;63.60;;;;;;6218540;23;20039;-80
2023/01/26 01:21:19;;;;;;;4.78;3.13;;;10.10;63.60;;;;;;6245707;23;19996;-81
2023/01/26 01:23:45;;;;;;;5.22;2.95;;;10.00;63.40;;;;;;6245448;23;20039;-82
2023/01/26 01:26:12;;;;;;;5.22;3.40;;;10.00;63.50;;;;;;6245751;22;20042;-81
2023/01/26 01:28:38;;;;;;;5.18;3.33;;;9.90;64.30;;;;;;6245504;23;20039;-82
2023/01/26 01:31:05;;;;;;;4.78;2.88;;;9.80;64.50;;;;;;6245451;23;20007;-81
2023/01/26 01:33:31;;;;;;;5.82;3.83;;;9.80;64.70;;;;;;6245399;23;20004;-81
2023/01/26 01:36:03;;;;;;;5.00;3.22;;;9.80;64.70;;;;;;6218660;23;20063;-80
2023/01/26 01:38:29;;;;;;;5.63;3.25;;;9.80;64.60;;;;;;6245392;23;20127;-80
2023/01/26 01:40:55;;;;;;;6.10;3.25;;;9.70;64.60;;;;;;6245413;23;20023;-79
2023/01/26 01:43:22;;;;;;;5.93;3.22;;;9.80;64.90;;;;;;6245377;23;20389;-80
2023/01/26 01:45:50;;;;;;;6.97;3.20;;;9.70;64.80;;;;;;6245190;23;20000;-80
2023/01/26 01:48:29;;;;;;;6.07;3.55;;;9.70;64.80;;;;;;6245510;23;20035;-81
2023/01/26 01:50:58;;;;;;;5.35;3.60;;;9.70;65.00;;;;;;6245744;23;20035;-80
2023/01/26 01:53:31;;;;;;;5.53;3.33;;;9.70;64.90;;;;;;6245312;23;20407;-79
2023/01/26 01:56:00;;;;;;;7.82;3.90;;;9.70;64.80;;;;;;6245523;23;20440;-79
2023/01/26 01:58:30;;;;;;;5.00;2.85;;;9.70;64.90;;;;;;6245425;23;20002;-79
2023/01/26 02:00:57;;;;;;;5.43;2.72;;;9.70;64.80;;;;;;6245264;23;20091;-80
2023/01/26 02:03:25;;;;;;;5.50;3.42;;;9.70;64.70;;;;;;6245042;23;20454;-78
2023/01/26 02:06:12;;;;;;;5.72;3.17;;;9.70;64.70;;;;;;6245348;23;20322;-80
2023/01/26 02:08:44;;;;;;;5.20;3.17;;;9.70;65.00;;;;;;6218009;23;20070;-82
2023/01/26 02:11:16;;;;;;;5.43;3.28;;;9.70;64.90;;;;;;6245283;23;20075;-80
2023/01/26 02:13:45;;;;;;;4.50;2.88;;;9.60;64.90;;;;;;6245284;23;20062;-81
2023/01/26 02:16:10;;;;;;;4.90;3.10;;;9.60;64.60;;;;;;6244516;23;20072;-79
2023/01/26 02:18:36;;;;;;;5.65;3.50;;;9.60;65.20;;;;;;6245268;23;20004;-80
2023/01/26 02:21:06;;;;;;;5.22;3.28;;;9.60;64.60;;;;;;6245309;23;20003;-80
2023/01/26 02:23:49;;;;;;;5.28;3.22;;;9.60;64.80;;;;;;6243179;22;20027;-81
2023/01/26 02:26:18;;;;;;;5.32;3.30;;;9.60;64.90;;;;;;6244848;23;20000;-81
2023/01/26 02:28:45;;;;;;;5.75;3.28;;;9.60;64.70;;;;;;6213087;23;20322;-81
2023/01/26 02:31:13;;;;;;;6.10;3.80;;;9.60;64.80;;;;;;6214997;23;20007;-79
2023/01/26 02:33:39;;;;;;;4.97;3.10;;;9.60;64.80;;;;;;6214707;23;19996;-81
2023/01/26 02:36:06;;;;;;;4.70;2.95;;;9.60;64.70;;;;;;6215049;23;20016;-81
2023/01/26 02:38:50;;;;;;;5.82;3.40;;;9.60;65.00;;;;;;6213379;23;20011;-80
2023/01/26 02:44:04;;;;;;;5.82;3.30;;;9.60;65.00;;;;;;6181933;23;20016;-79
2023/01/26 02:46:30;;;;;;;6.30;3.30;;;9.60;64.80;;;;;;6236711;23;19993;-79
2023/01/26 02:51:40;;;;;;;6.28;3.15;;;9.60;65.10;;;;;;6228889;23;20034;-80
2023/01/26 02:54:05;;;;;;;6.38;3.28;;;9.60;64.80;;;;;;6234891;23;20001;-81
2023/01/26 02:56:31;;;;;;;5.63;3.22;;;9.60;64.90;;;;;;6218955;23;20012;-80
2023/01/26 02:58:57;;;;;;;5.32;3.22;;;9.50;64.90;;;;;;6216579;23;20431;-79
2023/01/26 03:01:22;;;;;;;4.30;2.60;;;9.50;64.70;;;;;;6214981;23;20001;-80
2023/01/26 03:03:48;;;;;;;7.10;3.10;;;9.50;65.20;;;;;;6215101;23;20013;-81
2023/01/26 03:06:14;;;;;;;4.88;3.13;;;9.50;65.20;;;;;;6215481;23;20311;-81
2023/01/26 03:08:40;;;;;;;5.03;3.17;;;9.50;65.10;;;;;;6214746;23;20004;-80
2023/01/26 03:11:07;;;;;;;4.18;2.70;;;9.50;65.10;;;;;;6214613;23;20435;-80
2023/01/26 03:13:34;;;;;;;5.10;3.28;;;9.40;65.10;;;;;;6214479;23;20000;-79
2023/01/26 03:16:05;;;;;;;8.88;3.50;;;9.40;64.80;;;;;;6214858;23;20024;-81
2023/01/26 03:29:32;;;;;;;6.07;3.05;;;9.50;65.20;;;;;;6245241;23;20030;-81
2023/01/26 03:31:59;;;;;;;5.95;3.15;;;9.50;65.20;;;;;;6246790;23;19996;-81
2023/01/26 03:34:25;;;;;;;4.18;2.88;;;9.50;65.10;;;;;;6246901;23;20004;-81
2023/01/26 03:36:51;;;;;;;4.75;3.10;;;9.50;65.00;;;;;;6246605;23;20322;-81
2023/01/26 03:56:20;;;;;;;6.10;2.95;;;9.30;65.00;;;;;;6238958;23;20019;-81
2023/01/26 03:58:49;;;;;;;6.07;2.90;;;9.30;65.00;;;;;;6246616;23;20006;-81
2023/01/26 04:01:19;;;;;;;3.92;2.65;;;9.30;65.20;;;;;;6246587;23;20004;-81
2023/01/26 04:09:19;;;;;;;4.78;2.88;;;9.20;65.30;;;;;;6248035;23;20438;-80
2023/01/26 04:11:45;;;;;;;6.28;3.95;;;9.20;65.50;;;;;;6250775;23;20059;-80
2023/01/26 04:22:26;;;;;;;6.25;2.92;;;9.20;65.80;;;;;;6246122;23;20542;-80
2023/01/26 04:24:52;;;;;;;4.88;2.80;;;9.10;65.70;;;;;;6245868;23;20028;-80
2023/01/26 04:27:18;;;;;;;4.40;2.50;;;9.20;66.00;;;;;;6246457;23;20031;-81
2023/01/26 04:29:43;;;;;;;4.50;2.80;;;9.20;65.60;;;;;;6246335;23;20061;-80
2023/01/26 04:32:09;;;;;;;4.55;2.70;;;9.20;65.70;;;;;;6246178;23;20015;-80
2023/01/26 04:34:35;;;;;;;4.95;3.03;;;9.10;65.90;;;;;;6246154;23;20406;-80
2023/01/26 04:37:01;;;;;;;5.10;2.92;;;9.10;65.90;;;;;;6246011;23;19996;-79
2023/01/26 04:39:26;;;;;;;5.45;3.08;;;9.10;65.90;;;;;;6246185;23;20008;-80
2023/01/26 04:41:52;;;;;;;5.53;3.20;;;9.10;66.10;;;;;;6246349;23;20062;-80
2023/01/26 11:27:52;;;;;;;6.95;2.40;;;13.50;54.80;;;;;;6252059;22;20279;-84
2023/01/26 11:31:05;;;;;;;5.35;2.10;;;13.60;55.30;;;;;;6277928;22;20418;-83
2023/01/26 11:33:40;;;;;;;4.22;2.30;;;13.70;54.00;;;;;;6184885;22;20018;-84
2023/01/26 11:36:12;;;;;;;8.57;2.67;;;13.60;54.60;;;;;;6277025;22;20382;-77
2023/01/26 11:39:00;;;;;;;5.88;2.47;;;13.70;54.70;;;;;;6277081;22;20000;-76
2023/01/26 11:41:38;;;;;;;5.00;2.78;;;13.70;54.70;;;;;;6277234;22;20006;-78
2023/01/26 11:44:22;;;;;;;5.85;2.20;;;13.80;54.70;;;;;;6278074;22;20095;-78
2023/01/26 11:47:03;;;;;;;4.82;2.33;;;13.80;54.00;;;;;;6278464;22;20011;-79
2023/01/26 11:49:56;;;;;;;3.65;2.20;;;13.80;54.20;;;;;;6277580;22;20031;-79
2023/01/26 11:53:14;;;;;;;7.18;2.70;;;13.80;54.00;;;;;;6278263;22;19999;-70
2023/01/26 11:55:45;;;;;;;6.30;2.05;;;13.80;54.10;;;;;;6156538;23;20009;-80
2023/01/26 11:58:44;;;;;;;5.28;2.50;;;13.90;54.00;;;;;;6155668;23;20001;-80
2023/01/26 12:01:20;;;;;;;3.92;2.00;;;13.90;53.60;;;;;;6263770;22;20061;-84
2023/01/26 12:03:50;;;;;;;4.75;1.95;;;13.90;53.60;;;;;;6277196;22;20045;-81
2023/01/26 12:06:35;;;;;;;3.35;1.90;;;14.00;53.30;;;;;;6275987;22;20000;-81
2023/01/26 12:09:31;;;;;;;5.60;2.05;;;14.00;53.30;;;;;;6276978;22;20004;-81
2023/01/26 12:12:08;;;;;;;4.68;2.08;;;14.10;53.00;;;;;;6277709;22;19996;-82
2023/01/26 12:14:53;;;;;;;3.72;2.05;;;14.20;51.70;;;;;;6278271;22;19999;-82
2023/01/26 12:17:34;;;;;;;4.13;1.92;;;14.20;51.20;;;;;;6249475;22;20030;-83
2023/01/26 12:20:48;;;;;;;2.92;1.77;;;14.30;52.60;;;;;;6277487;22;20023;-83
2023/01/26 12:23:22;;;;;;;4.00;1.88;;;14.50;52.40;;;;;;6250433;22;20455;-83
2023/01/26 12:25:59;;;;;;;3.33;1.75;;;14.60;51.90;;;;;;6277020;22;20008;-82
2023/01/26 12:28:28;;;;;;;4.68;2.20;;;14.70;51.60;;;;;;6276683;22;20069;-81
2023/01/26 12:31:12;;;;;;;3.65;1.85;;;14.70;49.60;;;;;;6277134;22;19999;-82
2023/01/26 12:33:38;;;;;;;4.32;2.00;;;14.80;50.70;;;;;;6277132;22;20008;-82
2023/01/26 12:36:19;;;;;;;6.13;1.85;;;14.80;49.10;;;;;;6277057;22;20070;-82
2023/01/26 12:38:45;;;;;;;2.80;1.73;;;14.80;47.90;;;;;;6277318;22;20000;-81
2023/01/26 12:41:33;;;;;;;3.75;1.80;;;14.80;48.60;;;;;;6276906;22;19996;-82
2023/01/26 12:44:20;;;;;;;3.67;1.77;;;14.80;50.20;;;;;;6274839;22;20349;-82
2023/01/26 12:46:51;;;;;;;5.07;1.73;;;14.80;50.50;;;;;;6276923;22;19995;-82
2023/01/26 12:49:40;;;;;;;4.18;1.98;;;14.90;48.10;;;;;;6276983;22;20075;-81
2023/01/26 12:52:18;;;;;;;3.78;1.83;;;14.90;49.70;;;;;;6276972;22;19996;-81
2023/01/26 12:54:48;;;;;;;4.43;1.88;;;14.90;49.80;;;;;;6276739;22;20387;-81
2023/01/26 12:57:19;;;;;;;6.10;2.17;;;15.00;48.00;;;;;;6276596;22;19996;-82
2023/01/26 12:59:45;;;;;;;4.32;2.08;;;15.00;48.10;;;;;;6276202;22;20004;-81
2023/01/26 13:02:32;;;;;;;3.72;2.13;;;15.00;48.30;;;;;;6277639;22;20008;-83
2023/01/26 13:05:00;;;;;;;4.18;1.80;;;15.00;48.70;;;;;;6277241;22;20057;-81
2023/01/26 13:07:38;;;;;;;3.95;2.10;;;15.00;48.10;;;;;;6275276;22;20000;-83
2023/01/26 13:10:13;;;;;;;4.63;2.33;;;15.00;48.10;;;;;;6276948;22;20007;-82
2023/01/26 13:12:46;;;;;;;4.35;2.00;;;14.90;47.90;;;;;;6276533;22;19996;-82
2023/01/26 13:15:29;;;;;;;3.70;2.00;;;14.90;48.40;;;;;;6276998;22;20452;-82
2023/01/26 13:18:03;;;;;;;6.97;2.20;;;14.90;49.90;;;;;;6276388;22;19996;-82
2023/01/26 13:20:44;;;;;;;3.97;2.00;;;14.80;48.20;;;;;;6277003;22;20427;-82
2023/01/26 13:23:39;;;;;;;4.97;1.90;;;14.80;48.50;;;;;;6276587;22;20436;-82
2023/01/26 13:26:18;;;;;;;3.65;2.10;;;14.90;49.90;;;;;;6276563;22;20133;-82
2023/01/26 13:28:48;;;;;;;6.45;2.20;;;14.80;49.70;;;;;;6276240;22;20011;-82
2023/01/26 13:31:32;;;;;;;6.15;2.17;;;14.80;48.50;;;;;;6276983;22;20380;-82
2023/01/26 13:33:59;;;;;;;;;;;14.70;48.10;;;;;;6277223;22;19996;-81
2023/01/26 13:36:29;;;;;;;5.65;2.20;;;14.60;47.90;;;;;;6277516;22;19899;-81
2023/01/26 13:39:03;;;;;;;5.00;2.40;;;14.50;48.50;;;;;;6277915;22;20006;-72
2023/01/26 13:41:28;;;;;;;;;;;14.50;47.90;;;;;;6277544;22;20006;-74
2023/01/26 13:44:14;;;;;;;5.22;2.50;;;14.50;48.40;;;;;;6276833;22;19911;-75
2023/01/26 13:46:50;;;;;;;4.32;1.90;;;14.50;48.60;;;;;;6278790;22;20018;-76
2023/01/26 13:49:37;;;;;;;5.28;2.22;;;14.60;49.90;;;;;;6277704;22;20003;-72
2023/01/26 13:52:13;;;;;;;3.83;2.10;;;14.60;50.20;;;;;;6294324;22;20012;-75
2023/01/26 13:54:42;;;;;;;4.03;2.10;;;14.70;48.60;;;;;;6297884;22;19999;-76
2023/01/26 13:57:11;;;;;;;7.68;2.45;;;14.70;48.10;;;;;;6275880;22;19999;-78
2023/01/26 14:00:12;;;;;;;5.97;2.03;;;14.70;48.10;;;;;;6272903;22;20015;-79
2023/01/26 14:02:38;;;;;;;10.15;1.90;;;14.70;48.60;;;;;;6152118;23;20096;-79
2023/01/26 14:05:04;;;;;;;3.10;1.83;;;14.70;48.00;;;;;;6251282;22;20015;-79
2023/01/26 14:07:43;;;;;;;4.32;2.10;;;14.80;48.50;;;;;;6276193;22;20110;-78
2023/01/26 14:10:20;;;;;;;3.47;2.05;;;14.80;48.10;;;;;;6276338;22;20000;-79
2023/01/26 14:12:50;;;;;;;6.57;2.20;;;14.80;48.00;;;;;;6275070;22;20004;-77
2023/01/26 14:15:22;;;;;;;4.53;2.10;;;14.80;47.80;;;;;;6275660;22;20441;-78
2023/01/26 14:17:58;;;;;;;3.65;2.08;;;14.80;48.10;;;;;;6275787;22;20019;-77
2023/01/26 14:20:30;;;;;;;4.78;2.30;;;14.80;47.70;;;;;;6275049;22;20000;-77
2023/01/26 14:23:17;;;;;;;7.20;2.50;;;14.90;47.90;;;;;;6274051;22;20513;-77
2023/01/26 14:25:59;;;;;;;4.20;1.95;;;14.90;47.80;;;;;;6273729;22;20010;-78
2023/01/26 14:28:30;;;;;;;6.38;2.20;;;14.90;47.90;;;;;;6247938;22;20035;-78
2023/01/26 14:31:11;;;;;;;4.70;2.20;;;14.80;47.70;;;;;;6245528;23;20008;-77
2023/01/26 14:33:37;;;;;;;5.20;2.10;;;14.80;48.10;;;;;;6245175;23;20026;-78
2023/01/26 14:36:04;;;;;;;4.78;1.95;;;14.70;48.10;;;;;;6245978;23;20379;-76
2023/01/26 14:38:39;;;;;;;3.78;1.90;;;14.70;48.30;;;;;;6245221;23;20426;-78
2023/01/26 14:41:19;;;;;;;4.50;2.30;;;14.60;48.20;;;;;;6245697;23;20004;-78
2023/01/26 14:43:45;;;;;;;5.53;2.38;;;14.60;50.10;;;;;;6245646;23;20377;-78
2023/01/26 14:46:23;;;;;;;5.38;2.30;;;14.50;48.60;;;;;;6245515;23;20000;-77
2023/01/26 14:49:00;;;;;;;4.07;2.28;;;14.50;48.50;;;;;;6245417;23;20020;-77
2023/01/26 14:51:27;;;;;;;4.03;2.35;;;14.50;50.20;;;;;;6244832;23;20039;-78
2023/01/26 14:54:20;;;;;;;5.65;2.60;;;14.60;48.80;;;;;;6258119;23;20018;-77
2023/01/26 14:56:47;;;;;;;5.53;2.45;;;14.50;48.60;;;;;;6260654;23;19996;-77
2023/01/26 14:59:19;;;;;;;4.72;2.45;;;14.50;49.20;;;;;;6264000;23;19996;-77
2023/01/26 15:01:46;;;;;;;5.00;2.58;;;14.40;49.10;;;;;;6246675;23;20330;-79
2023/01/26 15:04:37;;;;;;;9.35;2.72;;;14.40;49.40;;;;;;6245240;23;20016;-78
2023/01/26 15:07:33;;;;;;;5.50;2.50;;;14.30;49.00;;;;;;6245726;23;20005;-78
2023/01/26 15:09:58;;;;;;;5.22;2.58;;;14.20;50.80;;;;;;6217393;23;20134;-78
2023/01/26 15:12:24;;;;;;;6.88;2.38;;;14.20;49.70;;;;;;6244771;23;20011;-77
2023/01/26 15:15:00;;;;;;;4.70;2.10;;;14.10;50.10;;;;;;6245092;23;20053;-77
2023/01/26 15:17:40;;;;;;;3.95;2.03;;;14.10;49.80;;;;;;6245498;23;20456;-77
2023/01/26 15:20:14;;;;;;;4.45;2.13;;;14.10;49.90;;;;;;6245408;23;20076;-77
2023/01/26 15:22:46;;;;;;;6.10;2.78;;;14.00;50.40;;;;;;6219210;23;20008;-78
2023/01/26 15:25:26;;;;;;;5.47;2.13;;;13.90;50.70;;;;;;6247678;23;20015;-78
2023/01/26 15:27:56;;;;;;;8.75;2.75;;;13.90;51.00;;;;;;6255045;22;20069;-78
2023/01/26 15:30:31;;;;;;;5.00;2.45;;;13.80;51.90;;;;;;6276270;22;20004;-77
2023/01/26 15:32:57;;;;;;;5.75;2.53;;;13.80;51.50;;;;;;6277813;22;20022;-77
2023/01/26 15:35:31;;;;;;;4.10;2.15;;;13.70;51.70;;;;;;6277586;22;20490;-77
2023/01/26 15:38:00;;;;;;;3.90;2.10;;;13.60;51.80;;;;;;6276603;22;20471;-80
2023/01/26 15:40:26;;;;;;;7.00;2.40;;;13.60;52.40;;;;;;6277838;22;20008;-74
2023/01/26 15:43:24;;;;;;;4.95;2.42;;;13.50;52.40;;;;;;6277275;22;20004;-76
2023/01/26 15:45:56;;;;;;;5.45;2.50;;;13.40;52.60;;;;;;6276499;22;20089;-79
2023/01/26 15:48:23;;;;;;;4.88;2.67;;;13.30;53.20;;;;;;6278331;22;19999;-77
2023/01/26 15:50:49;;;;;;;5.60;2.50;;;13.30;53.20;;;;;;6277772;22;20456;-79
2023/01/26 15:53:21;;;;;;;4.50;2.40;;;13.20;53.60;;;;;;6278258;22;20087;-76
2023/01/26 15:55:51;;;;;;;5.07;2.47;;;13.10;53.60;;;;;;6277934;22;20003;-78
2023/01/26 15:58:23;;;;;;;6.10;2.65;;;13.00;53.60;;;;;;6277929;22;20000;-79
2023/01/26 16:00:50;;;;;;;4.90;2.40;;;13.00;54.40;;;;;;6277765;22;20008;-79
2023/01/26 16:03:18;;;;;;;5.38;2.53;;;12.90;53.90;;;;;;6277884;22;20012;-78
2023/01/26 16:05:47;;;;;;;4.88;2.42;;;12.80;54.00;;;;;;6275853;22;20012;-78
2023/01/26 16:08:14;;;;;;;4.80;2.90;;;12.70;54.00;;;;;;6277320;22;20004;-79
2023/01/26 16:10:40;;;;;;;7.97;2.90;;;12.70;54.40;;;;;;6277119;22;20004;-78
2023/01/26 16:13:18;;;;;;;5.40;3.08;;;12.60;54.30;;;;;;6277641;22;20383;-79
2023/01/26 16:15:45;;;;;;;4.30;2.50;;;12.50;54.50;;;;;;6278031;22;20074;-78
2023/01/26 16:18:11;;;;;;;6.47;3.03;;;12.40;54.80;;;;;;6277576;22;20010;-79
2023/01/26 16:20:39;;;;;;;4.63;2.60;;;12.30;54.90;;;;;;6276100;22;20008;-77
2023/01/26 16:23:19;;;;;;;5.50;3.10;;;12.30;55.00;;;;;;6277534;22;20025;-79
2023/01/26 16:25:45;;;;;;;5.28;3.10;;;12.20;55.10;;;;;;6277460;22;20066;-77
2023/01/26 16:28:11;;;;;;;6.97;3.00;;;12.10;55.00;;;;;;6276724;22;20012;-78
2023/01/26 16:30:37;;;;;;;7.63;3.42;;;12.10;55.40;;;;;;6277349;22;20004;-78
2023/01/26 16:33:03;;;;;;;6.15;3.47;;;12.00;55.50;;;;;;6277390;22;20004;-78
2023/01/26 16:35:28;;;;;;;8.65;3.65;;;11.90;55.40;;;;;;6276899;22;19995;-78
2023/01/26 16:37:54;;;;;;;5.57;3.28;;;11.90;55.70;;;;;;6275424;22;20010;-77
2023/01/26 16:40:20;;;;;;;6.47;3.40;;;11.80;55.80;;;;;;6276884;22;20000;-75
2023/01/26 16:42:49;;;;;;;6.47;3.80;;;11.70;56.00;;;;;;6275216;22;20034;-77
2023/01/26 16:45:23;;;;;;;5.63;3.67;;;11.60;55.90;;;;;;6276736;22;20008;-77
2023/01/26 16:47:51;;;;;;;;;;;11.60;56.30;;;;;;6277620;22;20010;-76
2023/01/26 16:50:17;;;;;;;6.15;3.20;;;11.50;56.40;;;;;;6277670;22;19973;-79
2023/01/26 16:52:43;;;;;;;7.22;3.45;;;11.40;56.50;;;;;;6276670;22;20008;-77
2023/01/26 16:55:14;;;;;;;5.78;3.38;;;11.30;56.30;;;;;;6277184;22;20001;-79
2023/01/26 16:57:44;;;;;;;7.63;3.50;;;11.30;56.50;;;;;;6276741;22;20322;-77
2023/01/26 17:00:28;;;;;;;6.68;3.88;;;11.20;56.50;;;;;;6276550;22;20079;-78
2023/01/26 17:02:54;;;;;;;8.10;3.88;;;11.20;56.70;;;;;;6276871;22;20000;-78
2023/01/26 17:05:21;;;;;;;7.57;3.80;;;11.10;56.60;;;;;;6277198;22;20017;-78
2023/01/26 17:07:49;;;;;;;7.93;3.83;;;11.10;56.90;;;;;;6286885;22;20002;-79
2023/01/26 17:10:16;;;;;;;5.95;3.53;;;11.10;56.90;;;;;;6285628;22;20004;-77
2023/01/26 17:12:43;;;;;;;6.72;4.00;;;11.10;57.20;;;;;;6287176;22;20011;-75
2023/01/26 17:15:10;;;;;;;7.13;3.80;;;11.00;57.00;;;;;;6280106;22;20007;-81
2023/01/26 17:17:36;;;;;;;6.85;3.85;;;11.00;57.00;;;;;;6277800;22;20023;-82
2023/01/26 17:20:03;;;;;;;8.40;4.35;;;10.90;57.10;;;;;;6301957;22;20035;-78
2023/01/26 17:22:30;;;;;;;6.70;3.90;;;10.80;57.20;;;;;;6289323;22;20026;-83
2023/01/26 17:24:56;;;;;;;6.75;3.72;;;10.80;57.30;;;;;;6302497;22;19995;-83
2023/01/26 17:27:23;;;;;;;8.00;4.20;;;10.80;57.30;;;;;;6281556;22;20000;-83
2023/01/26 17:29:48;;;;;;;6.45;3.83;;;10.70;57.20;;;;;;6277355;22;20012;-82
2023/01/26 17:32:23;;;;;;;6.43;3.92;;;10.70;57.40;;;;;;6279173;22;20004;-84
2023/01/26 17:34:55;;;;;;;9.38;5.18;;;10.60;57.30;;;;;;6279319;22;20358;-82
2023/01/26 17:37:24;;;;;;;8.48;4.40;;;10.60;58.20;;;;;;6275619;22;20090;-81
2023/01/26 17:39:50;;;;;;;7.68;4.20;;;10.50;57.60;;;;;;6276807;22;19996;-79
2023/01/26 17:42:16;;;;;;;7.72;4.40;;;10.50;57.70;;;;;;6276650;22;20113;-79
2023/01/26 17:44:42;;;;;;;8.48;4.80;;;10.50;57.80;;;;;;6275833;22;20087;-79
2023/01/26 17:47:08;;;;;;;8.00;4.90;;;10.40;57.70;;;;;;6276285;22;20412;-83
2023/01/26 17:49:34;;;;;;;7.72;4.70;;;10.40;57.90;;;;;;6276188;22;20087;-82
2023/01/26 17:52:00;;;;;;;11.65;5.10;;;10.40;57.70;;;;;;6276712;22;20071;-83
2023/01/26 17:54:26;;;;;;;8.18;4.43;;;10.30;58.20;;;;;;6276638;22;20036;-82
2023/01/26 17:56:51;;;;;;;9.65;4.80;;;10.30;58.40;;;;;;6277708;22;20075;-79
2023/01/26 17:59:17;;;;;;;8.27;5.30;;;10.20;58.20;;;;;;6277253;22;20007;-81
2023/01/26 18:01:43;;;;;;;9.00;5.43;;;10.20;58.70;;;;;;6276087;22;19991;-79
2023/01/26 18:04:08;;;;;;;7.32;4.65;;;10.20;58.60;;;;;;6277009;22;20054;-81
2023/01/26 18:06:34;;;;;;;8.30;5.22;;;10.20;58.60;;;;;;6279529;22;19995;-82
2023/01/26 18:09:00;;;;;;;10.90;5.03;;;10.10;58.50;;;;;;6280897;22;20015;-79
2023/01/26 18:11:27;;;;;;;10.50;5.93;;;10.10;58.70;;;;;;6275335;22;20023;-79
2023/01/26 18:13:53;;;;;;;8.18;5.35;;;10.10;58.90;;;;;;6275404;22;20493;-81
2023/01/26 18:16:20;;;;;;;10.35;5.60;;;10.10;58.90;;;;;;6275463;22;20023;-80
2023/01/26 18:18:46;;;;;;;8.95;5.85;;;10.00;58.60;;;;;;6275104;22;20007;-78
2023/01/26 18:21:21;;;;;;;8.55;5.45;;;10.00;58.80;;;;;;6276083;22;20000;-80
2023/01/26 18:23:49;;;;;;;11.45;5.90;;;10.00;58.80;;;;;;6275560;22;20008;-80
2023/01/26 18:26:16;;;;;;;9.48;5.45;;;10.00;58.90;;;;;;6275684;22;20015;-79
2023/01/26 18:28:42;;;;;;;10.27;6.18;;;10.00;58.80;;;;;;6273643;22;20076;-78
2023/01/26 18:31:17;;;;;;;8.40;5.90;;;10.00;59.20;;;;;;6273854;22;20342;-80
2023/01/26 18:33:44;;;;;;;10.98;6.43;;;9.90;60.50;;;;;;6273948;22;20007;-78
2023/01/26 18:36:15;;;;;;;11.55;6.88;;;9.90;60.20;;;;;;6275821;22;19999;-78
2023/01/26 18:38:46;;;;;;;9.02;6.13;;;9.90;60.00;;;;;;6275033;22;19999;-77
2023/01/26 18:41:14;;;;;;;10.15;6.18;;;9.90;60.10;;;;;;6275374;22;20113;-78
2023/01/26 18:43:40;;;;;;;9.27;6.47;;;9.90;60.10;;;;;;6275127;22;20074;-76
2023/01/26 18:46:06;;;;;;;9.57;6.43;;;9.90;60.30;;;;;;6272873;22;20011;-80
2023/01/26 18:48:34;;;;;;;9.32;6.07;;;9.80;60.20;;;;;;6273739;22;20004;-82
2023/01/26 18:51:00;;;;;;;11.85;7.07;;;9.80;60.10;;;;;;6275366;22;20012;-80
2023/01/26 18:53:25;;;;;;;10.23;6.45;;;9.80;60.40;;;;;;6272694;22;20034;-78
2023/01/26 18:55:59;;;;;;;11.07;5.88;;;9.80;60.40;;;;;;6274721;22;20370;-78
2023/01/26 18:58:24;;;;;;;8.90;5.75;;;9.80;60.30;;;;;;6274038;22;20011;-75
2023/01/26 19:00:50;;;;;;;10.45;6.13;;;9.70;60.30;;;;;;6277020;22;20452;-80
2023/01/26 19:03:17;;;;;;;10.25;6.60;;;9.70;60.40;;;;;;6275167;22;20091;-77
2023/01/26 19:05:42;;;;;;;9.77;6.95;;;9.70;60.50;;;;;;6277055;22;20012;-77
2023/01/26 19:08:12;;;;;;;9.77;6.50;;;9.70;60.40;;;;;;6276707;22;20334;-77
2023/01/26 19:10:38;;;;;;;10.05;6.72;;;9.70;61.10;;;;;;6277090;22;20004;-77
2023/01/26 19:13:07;;;;;;;11.68;6.22;;;9.60;60.50;;;;;;6276742;22;20003;-78
2023/01/26 19:15:34;;;;;;;9.38;5.85;;;9.60;60.50;;;;;;6276809;22;20447;-78
2023/01/26 19:18:00;;;;;;;10.98;7.03;;;9.50;60.70;;;;;;6277024;22;20000;-74
2023/01/26 19:20:26;;;;;;;10.50;6.60;;;9.50;60.80;;;;;;6277292;22;20004;-79
2023/01/26 19:22:54;;;;;;;10.98;6.30;;;9.50;60.80;;;;;;6277006;22;20019;-76
2023/01/26 19:25:24;;;;;;;8.75;5.88;;;9.50;60.90;;;;;;6277402;22;20015;-74
2023/01/26 19:27:50;;;;;;;11.75;5.85;;;9.50;61.00;;;;;;6277062;22;20058;-79
2023/01/26 19:30:17;;;;;;;11.30;5.97;;;9.50;61.00;;;;;;6276901;22;20045;-76
2023/01/26 19:33:22;;;;;;;12.00;6.63;;;9.40;61.10;;;;;;6276742;22;20073;-80
2023/01/26 19:35:29;;;;;;;10.77;6.38;;;9.40;61.00;;;;;;6277042;22;20090;-80
2023/01/26 19:37:55;;;;;;;11.90;6.80;;;9.40;61.30;;;;;;6276920;22;20434;-79
2023/01/26 19:40:20;;;;;;;11.15;6.63;;;9.40;61.30;;;;;;6275877;22;20134;-80
2023/01/26 19:42:46;;;;;;;11.23;6.68;;;9.40;61.30;;;;;;6276575;22;20050;-75
2023/01/26 19:45:12;;;;;;;10.93;6.20;;;9.40;61.20;;;;;;6276468;22;20095;-75
2023/01/26 19:47:39;;;;;;;10.60;7.05;;;9.30;61.10;;;;;;6276581;22;20330;-76
2023/01/26 19:50:06;;;;;;;12.65;7.57;;;9.40;62.20;;;;;;6274742;22;20062;-77
2023/01/26 19:52:32;;;;;;;11.50;7.15;;;9.40;62.00;;;;;;6276239;22;20000;-77
2023/01/26 19:54:57;;;;;;;10.70;6.85;;;9.50;62.10;;;;;;6275943;22;20071;-76
2023/01/26 19:57:23;;;;;;;9.98;6.88;;;9.50;61.90;;;;;;6276588;22;20544;-75
2023/01/26 19:59:49;;;;;;;10.48;6.65;;;9.50;63.30;;;;;;6275920;22;20000;-76
2023/01/26 20:02:15;;;;;;;10.70;6.88;;;9.50;62.60;;;;;;6276363;22;20085;-79
2023/01/26 20:04:40;;;;;;;10.05;6.88;;;9.50;62.50;;;;;;6275830;22;20016;-76
2023/01/26 20:07:07;;;;;;;11.50;6.45;;;9.50;62.50;;;;;;6276234;22;20026;-76
2023/01/26 20:09:33;;;;;;;12.10;7.03;;;9.60;63.10;;;;;;6273972;22;20007;-77
2023/01/26 20:12:01;;;;;;;10.65;7.32;;;9.50;62.10;;;;;;6276526;22;19996;-77
2023/01/26 20:14:27;;;;;;;10.98;7.22;;;9.50;62.40;;;;;;6288656;22;20026;-75
2023/01/26 20:16:53;;;;;;;12.43;7.50;;;9.50;62.40;;;;;;6293619;22;20095;-76
2023/01/26 20:19:19;;;;;;;12.75;7.60;;;9.50;62.70;;;;;;6291727;22;20065;-75
2023/01/26 20:21:44;;;;;;;10.18;6.78;;;9.50;62.30;;;;;;6277052;22;20137;-77
2023/01/26 20:24:12;;;;;;;11.68;7.82;;;9.40;62.10;;;;;;6276190;22;20015;-77
2023/01/26 20:26:38;;;;;;;11.98;7.10;;;9.40;61.70;;;;;;6276966;22;20329;-75
2023/01/26 20:29:04;;;;;;;11.70;7.22;;;9.40;62.40;;;;;;6276088;22;20064;-82
2023/01/26 20:31:31;;;;;;;12.80;7.50;;;9.40;61.60;;;;;;6276029;22;20426;-85
2023/01/26 20:33:57;;;;;;;11.60;7.57;;;9.30;61.80;;;;;;6276271;22;20003;-83
2023/01/26 20:36:26;;;;;;;11.73;7.72;;;9.30;61.50;;;;;;6276835;22;20007;-81
2023/01/26 20:38:52;;;;;;;11.13;7.47;;;9.20;61.40;;;;;;6276571;22;20129;-83